ADDS METAR Data INFO
IDs: Format: Raw Decoded Include TAF

Data at: 0348 UTC 18 Oct 2017

PADQ 180327Z 36011G27KT 330V030 10SM FEW025 BKN040 OVC050 06/03 A2916 RMK AO2 PK WND 03034/0310 RAE22 P0002 T00610028
PADQ 180302Z 03017G29KT 5SM -RA BKN025 BKN030 OVC037 06/02 A2915 RMK AO2 PK WND 03029/0254 P0001 T00610022
PADQ 180253Z 03023G31KT 8SM -RA SCT025 BKN030 OVC055 07/02 A2915 RMK AO2 PK WND 03031/0251 RAB47 SLP872 P0000 60000 T00670022 55000
PADQ 180153Z 03017G25KT 10SM SCT028 BKN055 OVC100 07/03 A2914 RMK AO2 PK WND 03028/0118 SLP867 T00720028
PADQ 180053Z 04020KT 10SM SCT030 BKN048 OVC110 08/03 A2914 RMK AO2 PK WND 05026/0050 SLP867 T00780028
PADQ 172353Z 05017KT 10SM FEW031 BKN055 OVC085 08/02 A2915 RMK AO2 SLP872 60001 T00780022 10078 20017 56020
PADQ 172253Z 05017KT 10SM SCT033 OVC042 07/02 A2917 RMK AO2 SLP878 T00720022
PADQ 172153Z 07015KT 10SM FEW033 BKN044 OVC100 08/02 A2919 RMK AO2 SLP885 T00780022
PADQ 172053Z 06017KT 10SM BKN027 BKN033 OVC049 07/03 A2921 RMK AO2 SLP892 60001 T00720028 58017
PADQ 171953Z 05013KT 10SM FEW031 SCT040 BKN047 07/03 A2923 RMK AO2 RAB1854E13 SLP900 P0001 T00670028
PADQ 171925Z 04011KT 10SM FEW027 SCT035 OVC042 06/03 A2925 RMK AO2 RAB1854E13 P0001 T00610028
PADQ 171853Z 10017KT 10SM BKN029 OVC035 07/03 A2926 RMK AO2 RAB42E51 SLP909 P0000 T00670028
PADQ 171850Z 08016KT 10SM -RA BKN029 BKN035 OVC044 06/03 A2926 RMK AO2 RAB42 P0000
PADQ 171753Z 27004KT 10SM FEW026 SCT031 BKN042 02/01 A2928 RMK AO2 RAE16 SLP916 P0001 60001 T00170006 10022 21022 57022
PADQ 171653Z 30004KT 10SM -RA OVC029 02/M02 A2931 RMK AO2 RAB43 SLP926 P0000 T00171017
PADQ 171648Z 29004KT 10SM -RA OVC029 02/M01 A2931 RMK AO2 RAB43 P0000
PADQ 171553Z 27005KT 10SM SCT035 M01/M02 A2934 RMK AO2 SLP937 T10111022
PADQ 171453Z 26005KT 10SM CLR M02/M03 A2938 RMK AO2 SLP950 T10171028 58042
PADQ 171353Z AUTO 28005KT 10SM FEW036 FEW100 M02/M03 A2942 RMK AO2 SLP964 T10171028 TSNO
PADQ 171253Z AUTO 26003KT 10SM OVC095 M02/M03 A2947 RMK AO2 SLP979 T10171028 TSNO
PADQ 171153Z AUTO 28006KT 10SM CLR M02/M03 A2951 RMK AO2 SLP992 T10221033 10061 21022 58026 TSNO
PADQ 171053Z AUTO 27004KT 10SM CLR M01/M02 A2954 RMK AO2 SLP002 T10111022 TSNO
PADQ 170953Z AUTO 28006KT 10SM CLR M01/M03 A2956 RMK AO2 SLP010 T10111028 TSNO
PADQ 170853Z AUTO 27005KT 10SM CLR 00/M02 A2958 RMK AO2 SLP018 T00001022 400941006 58017 TSNO
PADQ 170753Z AUTO 29004KT 10SM CLR 01/M03 A2961 RMK AO2 SLP027 T00061028 TSNO
PADQ 170653Z AUTO 22007KT 10SM CLR 02/M02 A2962 RMK AO2 SLP031 T00171022 TSNO
PADQ 170553Z AUTO 17005KT 10SM FEW055 02/M02 A2963 RMK AO2 SLP035 T00221017 10094 20011 58001 TSNO
PADQ 170453Z AUTO 00000KT 10SM CLR 03/M02 A2964 RMK AO2 SLP038 T00281022 TSNO
PADQ 170353Z 00000KT 10SM CLR 05/M02 A2964 RMK AO2 SLP038 T00501022
PADQ 170253Z 25004KT 10SM CLR 05/M02 A2964 RMK AO2 SLP036 T00501017 55000
PADQ 170153Z 28010KT 10SM CLR 08/M02 A2963 RMK AO2 SLP034 T00781017
PADQ 170053Z 27011KT 10SM CLR 09/M02 A2963 RMK AO2 SLP035 T00891017
PADQ 162353Z 27008KT 10SM SCT048 09/M02 A2964 RMK AO2 SLP035 T00941017 10094 20028 50003
PADQ 162253Z 27007G17KT 10SM FEW046 09/M01 A2964 RMK AO2 SLP036 T00891006 $
PADQ 162153Z 27006KT 10SM FEW046 09/M01 A2964 RMK AO2 SLP035 T00891011 $
PADQ 162053Z 27010G19KT 10SM FEW042 08/M01 A2963 RMK AO2 SLP032 T00831006 51006 $
PADQ 161953Z 29007KT 10SM CLR 08/M01 A2962 RMK AO2 SLP030 T00781006 $
PADQ 161853Z 00000KT 10SM FEW040 07/00 A2962 RMK AO2 SLP030 T00670000 $
PADQ 161753Z 00000KT 10SM CLR 03/M01 A2961 RMK AO2 SLP027 T00331006 10061 20000 53007 $
PADQ 161653Z 29004KT 10SM CLR 01/M01 A2960 RMK AO2 SLP024 T00061011 $
PADQ 161553Z 25004KT 10SM CLR 01/M02 A2959 RMK AO2 SLP022 T00111017 $